Time;durP1;ratioP1;P1;durP2;ratioP2;P2;SDS_P1;SDS_P2;PMS_P1;PMS_P2;Temp;Humidity;BMP_temperature;BMP_pressure;BME280_temperature;BME280_humidity;BME280_pressure;Samples;Min_cycle;Max_cycle;Signal;HPM_P1;HPM_P2
2023/04/05 00:02:28;;;;;;;4.90;4.40;;;;;;;;;;5078791;28;20215;-61
2023/04/05 00:04:59;;;;;;;4.90;4.40;;;;;;;;;;5119353;28;20238;-61
2023/04/05 00:07:27;;;;;;;4.85;4.32;;;;;;;;;;5119280;28;20195;-61
2023/04/05 00:09:54;;;;;;;4.47;3.80;;;;;;;;;;5119308;28;20250;-61
2023/04/05 00:12:22;;;;;;;4.88;4.25;;;;;;;;;;5119068;28;20203;-61
2023/04/05 00:14:49;;;;;;;4.60;4.18;;;;;;;;;;5119006;28;20302;-61
2023/04/05 00:17:17;;;;;;;4.00;3.60;;;;;;;;;;5119031;28;20305;-61
2023/04/05 00:19:50;;;;;;;4.90;3.90;;;;;;;;;;5119267;28;20203;-61
2023/04/05 00:22:24;;;;;;;4.00;3.60;;;;;;;;;;5118615;28;20203;-61
2023/04/05 00:24:52;;;;;;;4.47;3.97;;;;;;;;;;5118946;28;20226;-61
2023/04/05 00:27:20;;;;;;;3.65;3.35;;;;;;;;;;5118741;28;20203;-61
2023/04/05 00:29:47;;;;;;;3.80;3.40;;;;;;;;;;5118858;28;20229;-61
2023/04/05 00:32:15;;;;;;;4.13;3.80;;;;;;;;;;5119103;28;20221;-61
2023/04/05 00:34:42;;;;;;;3.85;3.40;;;;;;;;;;5119114;28;20199;-61
2023/04/05 00:37:10;;;;;;;3.92;3.53;;;;;;;;;;5119348;28;20302;-61
2023/04/05 00:39:39;;;;;;;4.13;3.72;;;;;;;;;;5118546;28;20289;-61
2023/04/05 00:42:07;;;;;;;3.63;3.17;;;;;;;;;;5118621;28;20603;-61
2023/04/05 00:44:35;;;;;;;3.72;3.40;;;;;;;;;;5118304;28;20602;-61
2023/04/05 00:47:02;;;;;;;3.92;3.38;;;;;;;;;;5118644;28;20210;-61
2023/04/05 00:49:30;;;;;;;3.45;3.05;;;;;;;;;;5118491;28;20213;-61
2023/04/05 00:51:58;;;;;;;3.78;3.30;;;;;;;;;;5118579;28;20214;-61
2023/04/05 00:54:27;;;;;;;3.35;3.05;;;;;;;;;;5118507;28;20519;-61
2023/04/05 00:56:56;;;;;;;3.08;2.78;;;;;;;;;;5118153;28;20231;-61
2023/04/05 00:59:23;;;;;;;3.20;2.90;;;;;;;;;;5118272;28;20229;-61
2023/04/05 01:01:56;;;;;;;3.13;2.83;;;;;;;;;;5118372;28;20233;-61
2023/04/05 01:04:26;;;;;;;2.90;2.70;;;;;;;;;;5118222;28;20203;-61
2023/04/05 01:07:00;;;;;;;3.47;3.17;;;;;;;;;;5108441;28;20648;-61
2023/04/05 01:09:34;;;;;;;3.20;2.70;;;;;;;;;;5097602;28;20242;-61
2023/04/05 01:12:06;;;;;;;3.13;2.80;;;;;;;;;;5097183;28;20535;-61
2023/04/05 01:14:33;;;;;;;3.08;2.78;;;;;;;;;;5097879;28;20278;-61
2023/04/05 01:17:02;;;;;;;2.70;2.47;;;;;;;;;;5097850;28;20203;-61
2023/04/05 01:19:33;;;;;;;2.90;2.70;;;;;;;;;;5097955;28;20649;-61
2023/04/05 01:22:16;;;;;;;3.40;2.70;;;;;;;;;;5097518;28;20204;-61
2023/04/05 01:24:51;;;;;;;3.00;2.78;;;;;;;;;;5094463;28;20223;-61
2023/04/05 01:27:23;;;;;;;2.90;2.70;;;;;;;;;;5097476;28;20575;-61
2023/04/05 01:29:57;;;;;;;2.95;2.60;;;;;;;;;;5097652;28;20203;-61
2023/04/05 01:32:40;;;;;;;2.47;2.28;;;;;;;;;;5097494;28;20213;-61
2023/04/05 01:35:10;;;;;;;3.00;2.70;;;;;;;;;;5097565;28;20660;-61
2023/04/05 01:37:39;;;;;;;2.40;2.20;;;;;;;;;;5097460;28;20235;-61
2023/04/05 01:40:07;;;;;;;2.40;2.20;;;;;;;;;;5097488;28;20242;-61
2023/04/05 01:42:35;;;;;;;2.70;2.40;;;;;;;;;;5096962;28;20290;-62
2023/04/05 01:45:03;;;;;;;2.58;2.38;;;;;;;;;;5097165;28;20227;-62
2023/04/05 01:47:31;;;;;;;2.65;2.45;;;;;;;;;;5097284;28;20206;-62
2023/04/05 01:49:59;;;;;;;2.80;2.33;;;;;;;;;;5097449;28;20294;-61
2023/04/05 01:52:26;;;;;;;2.50;2.30;;;;;;;;;;5097283;28;20203;-61
2023/04/05 01:54:53;;;;;;;2.40;2.20;;;;;;;;;;5097870;28;20574;-61
2023/04/05 01:57:21;;;;;;;2.60;2.40;;;;;;;;;;5097277;28;20226;-61
2023/04/05 01:59:49;;;;;;;2.40;2.20;;;;;;;;;;5097528;28;20306;-61
2023/04/05 02:02:17;;;;;;;2.15;2.03;;;;;;;;;;5097755;28;20735;-61
2023/04/05 02:04:45;;;;;;;2.45;2.25;;;;;;;;;;5097167;28;20203;-61
2023/04/05 02:07:12;;;;;;;2.35;2.15;;;;;;;;;;5097300;28;20204;-61
2023/04/05 02:09:39;;;;;;;2.50;2.30;;;;;;;;;;5097470;28;20222;-61
2023/04/05 02:12:07;;;;;;;2.50;2.30;;;;;;;;;;5097261;28;20203;-62
2023/04/05 02:14:35;;;;;;;2.35;2.15;;;;;;;;;;5097310;28;20203;-62
2023/04/05 02:17:02;;;;;;;2.20;2.05;;;;;;;;;;5097123;28;20235;-61
2023/04/05 02:19:39;;;;;;;2.63;2.38;;;;;;;;;;5097001;28;20204;-61
2023/04/05 02:22:07;;;;;;;2.50;2.30;;;;;;;;;;5098576;28;20203;-61
2023/04/05 02:24:35;;;;;;;2.20;2.00;;;;;;;;;;5100767;28;20556;-61
2023/04/05 02:27:02;;;;;;;2.92;2.20;;;;;;;;;;5100724;28;20545;-61
2023/04/05 02:29:30;;;;;;;2.30;2.10;;;;;;;;;;5100917;28;20505;-61
2023/04/05 02:31:58;;;;;;;2.85;2.13;;;;;;;;;;5100347;28;20203;-61
2023/04/05 02:34:26;;;;;;;2.10;1.90;;;;;;;;;;5100657;28;20203;-61
2023/04/05 02:36:54;;;;;;;2.50;2.30;;;;;;;;;;5100620;28;20200;-61
2023/04/05 02:39:22;;;;;;;2.10;1.90;;;;;;;;;;5101133;28;20234;-61
2023/04/05 02:41:49;;;;;;;1.90;1.70;;;;;;;;;;5100934;28;20207;-61
2023/04/05 02:44:17;;;;;;;2.20;2.00;;;;;;;;;;5100316;28;20265;-61
2023/04/05 02:46:44;;;;;;;1.85;1.75;;;;;;;;;;5100492;28;20660;-61
2023/04/05 02:49:11;;;;;;;2.30;1.90;;;;;;;;;;5100354;28;20458;-61
2023/04/05 02:51:38;;;;;;;2.20;2.00;;;;;;;;;;5100566;28;20214;-61
2023/04/05 02:54:07;;;;;;;1.90;1.80;;;;;;;;;;5100505;28;20211;-61
2023/04/05 02:56:35;;;;;;;2.10;1.90;;;;;;;;;;5100063;28;20238;-61
2023/04/05 02:59:03;;;;;;;1.95;1.80;;;;;;;;;;5099991;28;20234;-62
2023/04/05 03:01:31;;;;;;;2.60;1.95;;;;;;;;;;5100302;28;20208;-62
2023/04/05 03:03:59;;;;;;;1.85;1.60;;;;;;;;;;5100118;28;20307;-62
2023/04/05 03:06:26;;;;;;;1.67;1.55;;;;;;;;;;5099530;28;20235;-62
2023/04/05 03:08:54;;;;;;;2.35;2.15;;;;;;;;;;5099922;28;20212;-62
2023/04/05 03:11:23;;;;;;;2.53;2.05;;;;;;;;;;5099658;28;20214;-62
2023/04/05 03:13:50;;;;;;;2.03;1.90;;;;;;;;;;5100207;28;20203;-62
2023/04/05 03:16:19;;;;;;;1.83;1.70;;;;;;;;;;5099843;28;20218;-62
2023/04/05 03:18:46;;;;;;;1.75;1.65;;;;;;;;;;5099767;28;20277;-61
2023/04/05 03:21:16;;;;;;;2.20;2.00;;;;;;;;;;5100110;28;20214;-61
2023/04/05 03:23:45;;;;;;;1.73;1.63;;;;;;;;;;5099534;28;20268;-61
2023/04/05 03:26:13;;;;;;;1.88;1.75;;;;;;;;;;5099457;28;20263;-61
2023/04/05 03:28:43;;;;;;;2.08;1.88;;;;;;;;;;5099273;28;20241;-61
2023/04/05 03:31:11;;;;;;;2.10;1.90;;;;;;;;;;5098904;28;20204;-61
2023/04/05 03:33:38;;;;;;;1.80;1.70;;;;;;;;;;5098358;28;20204;-61
2023/04/05 03:36:06;;;;;;;1.80;1.70;;;;;;;;;;5099078;28;20208;-61
2023/04/05 03:38:33;;;;;;;1.95;1.83;;;;;;;;;;5099304;28;20305;-61
2023/04/05 03:41:01;;;;;;;1.90;1.80;;;;;;;;;;5098915;28;20215;-61
2023/04/05 03:43:28;;;;;;;1.70;1.60;;;;;;;;;;5099509;28;20203;-61
2023/04/05 03:45:57;;;;;;;2.10;1.88;;;;;;;;;;5099449;28;20331;-61
2023/04/05 03:48:25;;;;;;;2.22;2.03;;;;;;;;;;5099138;28;20212;-61
2023/04/05 03:50:53;;;;;;;1.80;1.70;;;;;;;;;;5098384;28;20203;-62
2023/04/05 03:53:20;;;;;;;1.80;1.70;;;;;;;;;;5099122;28;20204;-62
2023/04/05 03:55:49;;;;;;;1.80;1.65;;;;;;;;;;5098787;28;20767;-62
2023/04/05 03:58:16;;;;;;;1.92;1.60;;;;;;;;;;5098308;28;20516;-62
2023/04/05 04:00:44;;;;;;;1.90;1.80;;;;;;;;;;5098770;28;20233;-62
2023/04/05 04:03:13;;;;;;;1.90;1.80;;;;;;;;;;5098624;28;20196;-62
2023/04/05 04:05:41;;;;;;;1.77;1.67;;;;;;;;;;5099099;28;20228;-62
2023/04/05 04:08:08;;;;;;;1.73;1.63;;;;;;;;;;5098549;28;20203;-62
2023/04/05 04:10:35;;;;;;;1.60;1.50;;;;;;;;;;5098302;28;20199;-62
2023/04/05 04:13:03;;;;;;;1.67;1.58;;;;;;;;;;5098389;28;20242;-62
2023/04/05 04:15:30;;;;;;;1.80;1.70;;;;;;;;;;5098247;28;20211;-62
2023/04/05 04:17:58;;;;;;;1.73;1.52;;;;;;;;;;5097681;28;20214;-62
2023/04/05 04:20:26;;;;;;;1.77;1.52;;;;;;;;;;5098611;28;20211;-62
2023/04/05 04:22:54;;;;;;;1.60;1.50;;;;;;;;;;5098164;28;20215;-62
2023/04/05 04:25:21;;;;;;;1.80;1.63;;;;;;;;;;5098207;28;20282;-62
2023/04/05 04:27:49;;;;;;;1.70;1.60;;;;;;;;;;5098208;28;20202;-62
2023/04/05 04:30:16;;;;;;;1.77;1.67;;;;;;;;;;5097695;28;20572;-62
2023/04/05 04:32:50;;;;;;;2.65;1.83;;;;;;;;;;5097919;28;20225;-62
2023/04/05 04:35:19;;;;;;;1.85;1.55;;;;;;;;;;5097317;28;20211;-62
2023/04/05 04:37:51;;;;;;;2.63;1.80;;;;;;;;;;5097311;28;20203;-62
2023/04/05 04:40:20;;;;;;;1.77;1.60;;;;;;;;;;5097641;28;20200;-62
2023/04/05 04:42:47;;;;;;;1.88;1.60;;;;;;;;;;5097218;28;20214;-62
2023/04/05 04:45:16;;;;;;;1.67;1.58;;;;;;;;;;5096821;28;20203;-62
2023/04/05 04:47:43;;;;;;;2.78;1.70;;;;;;;;;;5096387;28;20245;-62
2023/04/05 04:50:11;;;;;;;1.90;1.80;;;;;;;;;;5096932;28;20208;-62
2023/04/05 04:52:39;;;;;;;1.83;1.70;;;;;;;;;;5096648;28;20573;-62
2023/04/05 04:55:08;;;;;;;1.70;1.60;;;;;;;;;;5096429;28;20243;-62
2023/04/05 04:57:36;;;;;;;2.30;2.10;;;;;;;;;;5096693;28;20238;-62
2023/04/05 05:00:10;;;;;;;1.77;1.67;;;;;;;;;;5095994;28;20210;-62
2023/04/05 05:02:38;;;;;;;1.80;1.70;;;;;;;;;;5095548;28;20206;-62
2023/04/05 05:05:05;;;;;;;3.05;1.88;;;;;;;;;;5095313;28;20203;-62
2023/04/05 05:07:33;;;;;;;1.60;1.50;;;;;;;;;;5094724;28;20261;-62
2023/04/05 05:10:00;;;;;;;2.00;1.52;;;;;;;;;;5095406;28;20211;-62
2023/04/05 05:12:30;;;;;;;2.55;1.80;;;;;;;;;;5095882;28;20211;-62
2023/04/05 05:14:57;;;;;;;2.40;1.70;;;;;;;;;;5094808;28;20555;-62
2023/04/05 05:17:25;;;;;;;2.15;1.80;;;;;;;;;;5093760;28;20192;-62
2023/04/05 05:19:52;;;;;;;2.03;1.85;;;;;;;;;;5094956;28;20615;-62
2023/04/05 05:22:19;;;;;;;1.75;1.65;;;;;;;;;;5095479;28;20571;-62
2023/04/05 05:24:46;;;;;;;1.85;1.75;;;;;;;;;;5095003;28;20247;-62
2023/04/05 05:27:14;;;;;;;2.38;1.80;;;;;;;;;;5095328;28;20627;-62
2023/04/05 05:29:43;;;;;;;1.90;1.80;;;;;;;;;;5094457;28;20538;-62
2023/04/05 05:32:13;;;;;;;2.25;1.98;;;;;;;;;;5109326;28;20199;-62
2023/04/05 05:34:43;;;;;;;1.65;1.55;;;;;;;;;;5114656;28;20206;-62
2023/04/05 05:37:11;;;;;;;2.00;1.90;;;;;;;;;;5114964;28;20199;-62
2023/04/05 05:39:38;;;;;;;2.33;1.80;;;;;;;;;;5115644;28;20202;-62
2023/04/05 05:42:05;;;;;;;2.20;2.00;;;;;;;;;;5115182;28;20202;-62
2023/04/05 05:44:33;;;;;;;1.80;1.70;;;;;;;;;;5115154;28;20210;-62
2023/04/05 05:47:01;;;;;;;2.08;1.90;;;;;;;;;;5114690;28;20235;-62
2023/04/05 05:49:30;;;;;;;2.05;1.83;;;;;;;;;;5114431;28;20202;-62
2023/04/05 05:51:57;;;;;;;3.05;1.90;;;;;;;;;;5113964;28;20221;-62
2023/04/05 05:54:26;;;;;;;2.15;1.90;;;;;;;;;;5115371;28;20234;-62
2023/04/05 05:56:53;;;;;;;1.92;1.73;;;;;;;;;;5114346;28;20334;-62
2023/04/05 05:59:20;;;;;;;2.30;1.85;;;;;;;;;;5118689;28;20210;-62
2023/04/05 06:01:50;;;;;;;2.65;2.13;;;;;;;;;;5119020;28;20206;-62
2023/04/05 06:04:19;;;;;;;2.17;1.80;;;;;;;;;;5118653;28;20313;-62
2023/04/05 06:06:46;;;;;;;1.98;1.88;;;;;;;;;;5119279;28;20318;-62
2023/04/05 06:09:14;;;;;;;2.25;2.05;;;;;;;;;;5118888;28;20210;-62
2023/04/05 06:11:41;;;;;;;1.77;1.67;;;;;;;;;;5119676;28;20252;-62
2023/04/05 06:14:09;;;;;;;2.10;1.90;;;;;;;;;;5119362;28;20202;-62
2023/04/05 06:16:36;;;;;;;2.47;2.00;;;;;;;;;;5119206;28;20199;-62
2023/04/05 06:19:03;;;;;;;2.28;2.08;;;;;;;;;;5119409;28;20206;-62
2023/04/05 06:21:32;;;;;;;2.33;1.88;;;;;;;;;;5120032;28;20214;-62
2023/04/05 06:24:00;;;;;;;2.30;2.10;;;;;;;;;;5117488;28;20195;-62
2023/04/05 06:26:28;;;;;;;2.50;2.17;;;;;;;;;;5103125;28;20249;-62
2023/04/05 06:28:56;;;;;;;2.70;2.08;;;;;;;;;;5098252;28;20680;-62
2023/04/05 06:31:27;;;;;;;2.65;2.00;;;;;;;;;;5099312;28;20587;-62
2023/04/05 06:33:54;;;;;;;2.25;2.05;;;;;;;;;;5098827;28;20214;-62
2023/04/05 06:36:22;;;;;;;2.40;2.20;;;;;;;;;;5098366;28;20264;-62
2023/04/05 06:38:51;;;;;;;3.63;2.20;;;;;;;;;;5098008;28;20203;-62
2023/04/05 06:41:18;;;;;;;2.38;2.00;;;;;;;;;;5098568;28;20286;-62
2023/04/05 06:43:45;;;;;;;2.58;2.28;;;;;;;;;;5098909;28;20199;-62
2023/04/05 06:46:13;;;;;;;2.55;2.10;;;;;;;;;;5098764;28;20199;-62
2023/04/05 06:48:42;;;;;;;2.50;2.30;;;;;;;;;;5098681;28;20268;-62
2023/04/05 06:51:10;;;;;;;2.75;2.55;;;;;;;;;;5110571;28;20206;-62
2023/04/05 06:53:37;;;;;;;2.60;2.40;;;;;;;;;;5117707;28;20510;-62
2023/04/05 06:56:06;;;;;;;2.58;2.30;;;;;;;;;;5118476;28;20203;-62
2023/04/05 06:58:33;;;;;;;2.50;2.30;;;;;;;;;;5118326;28;20269;-62
2023/04/05 07:01:01;;;;;;;2.65;2.45;;;;;;;;;;5118482;28;20673;-62
2023/04/05 07:03:29;;;;;;;3.08;2.28;;;;;;;;;;5118271;28;20210;-62
2023/04/05 07:05:58;;;;;;;2.60;2.40;;;;;;;;;;5117973;28;20504;-62
2023/04/05 07:08:25;;;;;;;2.47;2.28;;;;;;;;;;5117187;28;20753;-62
2023/04/05 07:10:53;;;;;;;2.35;2.15;;;;;;;;;;5118893;28;20211;-62
2023/04/05 07:13:22;;;;;;;2.63;2.42;;;;;;;;;;5118080;28;20213;-62
2023/04/05 07:15:50;;;;;;;2.88;2.53;;;;;;;;;;5116739;28;20210;-62
2023/04/05 07:18:17;;;;;;;2.60;2.40;;;;;;;;;;5097862;28;20211;-62
2023/04/05 07:20:47;;;;;;;2.53;2.33;;;;;;;;;;5097832;28;20211;-62
2023/04/05 07:23:15;;;;;;;2.83;2.25;;;;;;;;;;5097621;28;20298;-62
2023/04/05 07:25:42;;;;;;;2.50;2.30;;;;;;;;;;5097250;28;20599;-62
2023/04/05 07:28:10;;;;;;;2.40;2.20;;;;;;;;;;5097635;28;20223;-62
2023/04/05 07:30:38;;;;;;;3.00;2.70;;;;;;;;;;5097716;28;20456;-62
2023/04/05 07:33:06;;;;;;;2.83;2.25;;;;;;;;;;5097518;28;20672;-62
2023/04/05 07:35:33;;;;;;;2.35;2.10;;;;;;;;;;5097827;28;20538;-62
2023/04/05 07:38:00;;;;;;;2.72;2.42;;;;;;;;;;5097199;28;20207;-62
2023/04/05 07:40:28;;;;;;;2.63;2.10;;;;;;;;;;5097895;28;20602;-62
2023/04/05 07:42:55;;;;;;;3.40;2.30;;;;;;;;;;5107058;28;20625;-62
2023/04/05 07:45:23;;;;;;;2.58;2.30;;;;;;;;;;5116931;28;20202;-62
2023/04/05 07:47:51;;;;;;;2.42;2.22;;;;;;;;;;5117319;28;20554;-62
2023/04/05 07:50:19;;;;;;;2.92;2.50;;;;;;;;;;5116892;28;20207;-62
2023/04/05 07:52:46;;;;;;;2.50;2.30;;;;;;;;;;5117596;28;20214;-62
2023/04/05 07:55:14;;;;;;;2.88;2.47;;;;;;;;;;5117819;28;20210;-62
2023/04/05 07:57:41;;;;;;;2.58;2.25;;;;;;;;;;5116914;28;20299;-62
2023/04/05 08:00:11;;;;;;;2.53;2.33;;;;;;;;;;5117467;28;20203;-62
2023/04/05 08:02:39;;;;;;;2.25;2.05;;;;;;;;;;5117325;28;20638;-62
2023/04/05 08:05:08;;;;;;;2.40;2.10;;;;;;;;;;5117112;28;20199;-63
2023/04/05 08:07:35;;;;;;;2.70;2.50;;;;;;;;;;5117693;28;20226;-62
2023/04/05 08:10:03;;;;;;;2.70;2.50;;;;;;;;;;5096483;28;20207;-62
2023/04/05 08:12:31;;;;;;;2.33;2.13;;;;;;;;;;5096271;28;20195;-62
2023/04/05 08:14:58;;;;;;;2.47;2.28;;;;;;;;;;5096476;28;20226;-62
2023/04/05 08:17:27;;;;;;;2.45;2.25;;;;;;;;;;5096535;28;20496;-62
2023/04/05 08:19:54;;;;;;;2.38;2.17;;;;;;;;;;5096039;28;20295;-62
2023/04/05 08:22:23;;;;;;;2.70;2.10;;;;;;;;;;5096259;28;20211;-62
2023/04/05 08:24:51;;;;;;;2.33;2.13;;;;;;;;;;5096260;28;20214;-62
2023/04/05 08:27:18;;;;;;;2.70;2.50;;;;;;;;;;5096355;28;20235;-62
2023/04/05 08:29:46;;;;;;;2.30;2.10;;;;;;;;;;5096485;28;20207;-62
2023/04/05 08:32:13;;;;;;;2.60;2.35;;;;;;;;;;5096923;28;20283;-62
2023/04/05 08:34:40;;;;;;;2.50;2.08;;;;;;;;;;5104157;28;20528;-62
2023/04/05 08:37:07;;;;;;;2.28;2.08;;;;;;;;;;5116479;28;20199;-63
2023/04/05 08:39:36;;;;;;;2.40;2.00;;;;;;;;;;5116639;28;20202;-63
2023/04/05 08:42:05;;;;;;;2.47;2.28;;;;;;;;;;5102114;28;20203;-63
2023/04/05 08:44:32;;;;;;;2.38;2.17;;;;;;;;;;5113566;28;20221;-63
2023/04/05 08:47:00;;;;;;;2.20;2.00;;;;;;;;;;5117002;28;20355;-63
2023/04/05 08:49:27;;;;;;;2.28;2.08;;;;;;;;;;5116105;28;20673;-63
2023/04/05 08:51:55;;;;;;;2.78;2.20;;;;;;;;;;5115900;28;20203;-63
2023/04/05 08:54:22;;;;;;;2.20;2.00;;;;;;;;;;5114954;28;20209;-62
2023/04/05 08:56:53;;;;;;;2.25;2.08;;;;;;;;;;5115187;28;20231;-62
2023/04/05 08:59:21;;;;;;;2.22;2.03;;;;;;;;;;5115686;28;20234;-62
2023/04/05 09:01:51;;;;;;;2.00;1.90;;;;;;;;;;5097975;28;20238;-62
2023/04/05 09:04:20;;;;;;;2.15;1.98;;;;;;;;;;5095726;28;20196;-63
2023/04/05 09:06:48;;;;;;;2.20;2.00;;;;;;;;;;5095641;28;20234;-63
2023/04/05 09:09:15;;;;;;;2.00;1.80;;;;;;;;;;5095406;28;20618;-62
2023/04/05 09:11:44;;;;;;;1.85;1.75;;;;;;;;;;5095406;28;20211;-62
2023/04/05 09:14:13;;;;;;;2.10;1.90;;;;;;;;;;5094351;28;20230;-62
2023/04/05 09:16:41;;;;;;;2.10;1.90;;;;;;;;;;5095960;28;20205;-62
2023/04/05 09:19:08;;;;;;;1.90;1.80;;;;;;;;;;5095282;28;20226;-62
2023/04/05 09:21:51;;;;;;;2.72;2.10;;;;;;;;;;5094838;28;20203;-62
2023/04/05 09:24:30;;;;;;;2.10;2.00;;;;;;;;;;5078660;28;20211;-63
2023/04/05 09:27:05;;;;;;;1.90;1.80;;;;;;;;;;5104592;28;20198;-62
2023/04/05 09:29:33;;;;;;;1.95;1.85;;;;;;;;;;5115361;28;20578;-62
2023/04/05 09:32:02;;;;;;;2.00;1.70;;;;;;;;;;5114347;28;20256;-62
2023/04/05 09:34:31;;;;;;;1.73;1.63;;;;;;;;;;5115397;28;20249;-62
2023/04/05 09:36:58;;;;;;;2.30;2.10;;;;;;;;;;5114863;28;20257;-62
2023/04/05 09:39:29;;;;;;;1.98;1.80;;;;;;;;;;5114987;28;20199;-62
2023/04/05 09:42:05;;;;;;;1.88;1.77;;;;;;;;;;5115013;28;20199;-62
2023/04/05 09:44:49;;;;;;;1.58;1.48;;;;;;;;;;5114919;28;20206;-62
2023/04/05 09:47:17;;;;;;;1.90;1.70;;;;;;;;;;5114852;28;20669;-62
2023/04/05 09:49:44;;;;;;;1.85;1.75;;;;;;;;;;5114824;28;20242;-62
2023/04/05 09:52:18;;;;;;;2.38;1.77;;;;;;;;;;5110878;28;20270;-62
2023/04/05 09:54:46;;;;;;;1.60;1.50;;;;;;;;;;5101175;28;20264;-62
2023/04/05 09:57:13;;;;;;;1.88;1.60;;;;;;;;;;5114012;28;20274;-62
2023/04/05 09:59:40;;;;;;;1.70;1.60;;;;;;;;;;5115074;28;20214;-62
2023/04/05 10:02:11;;;;;;;2.00;1.90;;;;;;;;;;5114166;28;20678;-63
2023/04/05 10:04:42;;;;;;;1.70;1.60;;;;;;;;;;5114395;28;20306;-63
2023/04/05 10:07:13;;;;;;;2.20;1.63;;;;;;;;;;5114478;28;20213;-63
2023/04/05 10:09:40;;;;;;;1.60;1.50;;;;;;;;;;5115150;28;20209;-63
2023/04/05 10:12:08;;;;;;;1.70;1.60;;;;;;;;;;5114388;28;20235;-62
2023/04/05 10:14:36;;;;;;;1.83;1.50;;;;;;;;;;5113517;28;20297;-62
2023/04/05 10:17:13;;;;;;;1.90;1.80;;;;;;;;;;5114770;28;20306;-62
2023/04/05 10:19:54;;;;;;;2.05;1.60;;;;;;;;;;5098076;28;20207;-62
2023/04/05 10:22:24;;;;;;;1.88;1.60;;;;;;;;;;5094355;28;20203;-62
2023/04/05 10:24:53;;;;;;;1.65;1.55;;;;;;;;;;5093797;28;20207;-63
2023/04/05 10:27:24;;;;;;;1.52;1.42;;;;;;;;;;5094766;28;20211;-62
2023/04/05 10:29:51;;;;;;;1.58;1.48;;;;;;;;;;5094401;28;20222;-62
2023/04/05 10:32:35;;;;;;;1.95;1.48;;;;;;;;;;5093955;28;20730;-62
2023/04/05 10:35:07;;;;;;;1.63;1.48;;;;;;;;;;5093868;28;20200;-62
2023/04/05 10:37:37;;;;;;;1.92;1.70;;;;;;;;;;5093906;28;20225;-62
2023/04/05 10:40:05;;;;;;;1.63;1.52;;;;;;;;;;5093555;28;20615;-62
2023/04/05 10:42:35;;;;;;;1.40;1.30;;;;;;;;;;5094455;28;20206;-62
2023/04/05 10:45:03;;;;;;;1.45;1.33;;;;;;;;;;5107369;28;20199;-62
2023/04/05 10:47:33;;;;;;;1.45;1.35;;;;;;;;;;5118171;28;20234;-62
2023/04/05 10:50:03;;;;;;;1.67;1.58;;;;;;;;;;5117202;28;20210;-62
2023/04/05 10:52:31;;;;;;;1.40;1.30;;;;;;;;;;5117878;28;20210;-62
2023/04/05 10:54:58;;;;;;;1.52;1.42;;;;;;;;;;5116999;28;20206;-62
2023/04/05 10:57:26;;;;;;;1.60;1.50;;;;;;;;;;5117367;28;20222;-62
2023/04/05 10:59:54;;;;;;;2.28;1.45;;;;;;;;;;5117066;28;20293;-62
2023/04/05 11:02:21;;;;;;;1.80;1.40;;;;;;;;;;5117671;28;20590;-62
2023/04/05 11:04:55;;;;;;;1.52;1.40;;;;;;;;;;5117500;28;20286;-62
2023/04/05 11:07:23;;;;;;;1.48;1.33;;;;;;;;;;5117572;28;20203;-62
2023/04/05 11:09:56;;;;;;;1.25;1.15;;;;;;;;;;5117146;28;20227;-62
2023/04/05 11:12:38;;;;;;;1.40;1.30;;;;;;;;;;5076949;28;20462;-62
2023/04/05 11:15:21;;;;;;;1.40;1.30;;;;;;;;;;5076606;28;20278;-63
2023/04/05 11:18:02;;;;;;;1.40;1.30;;;;;;;;;;5076215;28;20274;-63
2023/04/05 11:20:40;;;;;;;1.50;1.40;;;;;;;;;;5076977;28;20602;-63
2023/04/05 11:23:07;;;;;;;1.40;1.30;;;;;;;;;;5076098;28;20195;-62
2023/04/05 11:25:39;;;;;;;1.50;1.40;;;;;;;;;;5075881;28;20208;-62
2023/04/05 11:28:07;;;;;;;1.30;1.20;;;;;;;;;;5076130;28;20271;-62
2023/04/05 11:30:47;;;;;;;1.40;1.30;;;;;;;;;;5075623;28;20212;-62
2023/04/05 11:33:29;;;;;;;1.23;1.10;;;;;;;;;;5075335;28;20238;-62
2023/04/05 11:36:02;;;;;;;1.40;1.30;;;;;;;;;;5075829;28;20249;-62
2023/04/05 11:38:30;;;;;;;1.30;1.20;;;;;;;;;;5116761;28;20209;-62
2023/04/05 11:41:06;;;;;;;1.00;0.98;;;;;;;;;;5116094;28;20214;-62
2023/04/05 11:43:34;;;;;;;1.27;1.17;;;;;;;;;;5116705;28;20489;-62
2023/04/05 11:46:04;;;;;;;1.20;1.10;;;;;;;;;;5116365;28;20263;-62
2023/04/05 11:48:31;;;;;;;1.15;1.05;;;;;;;;;;5115818;28;20734;-62
2023/04/05 11:50:58;;;;;;;1.20;1.10;;;;;;;;;;5115448;28;20200;-62
2023/04/05 11:53:27;;;;;;;1.05;1.02;;;;;;;;;;5115842;28;20203;-62
2023/04/05 11:55:55;;;;;;;1.20;1.15;;;;;;;;;;5114361;28;20202;-63
2023/04/05 11:58:24;;;;;;;1.50;1.05;;;;;;;;;;5116749;28;20240;-62
2023/04/05 12:01:01;;;;;;;1.02;1.00;;;;;;;;;;5116337;28;20268;-62
2023/04/05 12:03:29;;;;;;;1.48;1.20;;;;;;;;;;5115843;28;20210;-62
2023/04/05 12:05:57;;;;;;;1.10;1.00;;;;;;;;;;5095206;28;20208;-62
2023/04/05 12:08:25;;;;;;;1.10;1.00;;;;;;;;;;5095609;28;20228;-62
2023/04/05 12:10:59;;;;;;;1.10;1.10;;;;;;;;;;5096383;28;20215;-62
2023/04/05 12:13:28;;;;;;;1.00;1.00;;;;;;;;;;5096062;28;20199;-62
2023/04/05 12:15:59;;;;;;;1.40;1.10;;;;;;;;;;5096377;28;20234;-62
2023/04/05 12:18:26;;;;;;;0.95;0.90;;;;;;;;;;5094964;28;20234;-62
2023/04/05 12:20:54;;;;;;;1.20;1.10;;;;;;;;;;5095542;28;20204;-62
2023/04/05 12:23:21;;;;;;;1.10;1.00;;;;;;;;;;5094977;28;20207;-62
2023/04/05 12:25:49;;;;;;;1.08;0.98;;;;;;;;;;5094646;28;20207;-62
2023/04/05 12:28:24;;;;;;;0.90;0.90;;;;;;;;;;5095238;28;20270;-62
2023/04/05 12:30:52;;;;;;;1.10;1.00;;;;;;;;;;5095468;28;20643;-62
2023/04/05 12:33:29;;;;;;;1.20;1.10;;;;;;;;;;5111569;28;20310;-62
2023/04/05 12:35:57;;;;;;;1.17;1.08;;;;;;;;;;5114988;28;20214;-62
2023/04/05 12:38:27;;;;;;;1.17;0.80;;;;;;;;;;5115704;28;20191;-62
2023/04/05 12:40:54;;;;;;;0.90;0.90;;;;;;;;;;5114842;28;20218;-62
2023/04/05 12:43:23;;;;;;;0.80;0.80;;;;;;;;;;5114783;28;20301;-62
2023/04/05 12:45:55;;;;;;;0.98;0.90;;;;;;;;;;5114994;28;20712;-62
2023/04/05 12:48:24;;;;;;;1.40;1.08;;;;;;;;;;5115613;28;20295;-62
2023/04/05 12:50:53;;;;;;;1.23;0.93;;;;;;;;;;5115786;28;20202;-62
2023/04/05 12:53:21;;;;;;;0.88;0.88;;;;;;;;;;5115875;28;20745;-62
2023/04/05 12:55:49;;;;;;;0.98;0.82;;;;;;;;;;5114894;28;20279;-62
2023/04/05 12:58:17;;;;;;;0.95;0.90;;;;;;;;;;5115339;28;20235;-62
2023/04/05 13:00:46;;;;;;;1.10;1.00;;;;;;;;;;5096754;28;20292;-62
2023/04/05 13:03:19;;;;;;;0.70;0.70;;;;;;;;;;5094838;28;20530;-62
2023/04/05 13:05:47;;;;;;;1.10;0.80;;;;;;;;;;5094262;28;20227;-62
2023/04/05 13:08:14;;;;;;;0.80;0.80;;;;;;;;;;5094310;28;20294;-62
2023/04/05 13:10:41;;;;;;;0.80;0.80;;;;;;;;;;5095549;28;20203;-62
2023/04/05 13:13:09;;;;;;;0.93;0.88;;;;;;;;;;5094469;28;20211;-62
2023/04/05 13:15:36;;;;;;;0.73;0.70;;;;;;;;;;5094773;28;20521;-62
2023/04/05 13:18:05;;;;;;;0.60;0.60;;;;;;;;;;5094137;28;20591;-62
2023/04/05 13:20:32;;;;;;;0.70;0.60;;;;;;;;;;5094316;28;20203;-62
2023/04/05 13:23:00;;;;;;;0.75;0.70;;;;;;;;;;5094010;28;20211;-62
2023/04/05 13:25:27;;;;;;;1.10;1.00;;;;;;;;;;5094714;28;20272;-62
2023/04/05 13:27:54;;;;;;;0.70;0.70;;;;;;;;;;5108345;28;20505;-62
2023/04/05 13:30:22;;;;;;;0.70;0.70;;;;;;;;;;5113519;28;20294;-62
2023/04/05 13:32:49;;;;;;;0.70;0.70;;;;;;;;;;5113767;28;20217;-62
2023/04/05 13:35:17;;;;;;;0.73;0.73;;;;;;;;;;5113850;28;20233;-62
2023/04/05 13:37:45;;;;;;;0.70;0.70;;;;;;;;;;5114136;28;20211;-62
2023/04/05 13:40:12;;;;;;;0.60;0.60;;;;;;;;;;5113891;28;20195;-62
2023/04/05 13:42:40;;;;;;;0.90;0.90;;;;;;;;;;5114911;28;20203;-62
2023/04/05 13:45:07;;;;;;;1.02;0.73;;;;;;;;;;5114571;28;20575;-62
2023/04/05 13:47:35;;;;;;;0.88;0.70;;;;;;;;;;5114891;28;20229;-62
2023/04/05 13:50:02;;;;;;;0.75;0.63;;;;;;;;;;5113922;28;20222;-62
2023/04/05 13:52:31;;;;;;;0.70;0.70;;;;;;;;;;5113249;28;20650;-62
2023/04/05 13:54:59;;;;;;;0.70;0.70;;;;;;;;;;5090387;28;20291;-62
2023/04/05 13:57:26;;;;;;;0.60;0.60;;;;;;;;;;5075796;28;20578;-62
2023/04/05 13:59:53;;;;;;;0.70;0.70;;;;;;;;;;5093889;28;20208;-62
2023/04/05 14:02:24;;;;;;;0.80;0.80;;;;;;;;;;5094573;28;20208;-62
2023/04/05 14:04:52;;;;;;;0.70;0.70;;;;;;;;;;5094121;28;20214;-62
2023/04/05 14:07:20;;;;;;;0.95;0.70;;;;;;;;;;5093570;28;20560;-62
2023/04/05 14:09:48;;;;;;;0.70;0.70;;;;;;;;;;5093420;28;20235;-62
2023/04/05 14:12:16;;;;;;;0.68;0.68;;;;;;;;;;5093615;28;20203;-62
2023/04/05 14:14:43;;;;;;;1.38;0.80;;;;;;;;;;5093161;28;20472;-62
2023/04/05 14:17:11;;;;;;;1.40;0.70;;;;;;;;;;5093503;28;20203;-62
2023/04/05 14:19:40;;;;;;;0.70;0.70;;;;;;;;;;5089911;28;20295;-62
2023/04/05 14:22:07;;;;;;;0.63;0.63;;;;;;;;;;5101203;28;20663;-62
2023/04/05 14:24:35;;;;;;;0.70;0.70;;;;;;;;;;5119044;28;20210;-62
2023/04/05 14:27:03;;;;;;;0.70;0.70;;;;;;;;;;5117617;28;20202;-62
2023/04/05 14:29:31;;;;;;;0.70;0.70;;;;;;;;;;5117930;28;20233;-62
2023/04/05 14:31:58;;;;;;;0.70;0.70;;;;;;;;;;5117624;28;20199;-62
2023/04/05 14:34:25;;;;;;;0.70;0.70;;;;;;;;;;5117692;28;20195;-62
2023/04/05 14:36:57;;;;;;;0.75;0.60;;;;;;;;;;5118051;28;20198;-62
2023/04/05 14:39:24;;;;;;;0.70;0.70;;;;;;;;;;5116805;28;20230;-62
2023/04/05 14:41:52;;;;;;;0.65;0.65;;;;;;;;;;5116900;28;20655;-62
2023/04/05 14:44:21;;;;;;;0.77;0.77;;;;;;;;;;5118686;28;20195;-62
2023/04/05 14:46:50;;;;;;;0.60;0.60;;;;;;;;;;5117818;28;20238;-62
2023/04/05 14:49:18;;;;;;;0.68;0.68;;;;;;;;;;5106120;28;20219;-62
2023/04/05 14:51:45;;;;;;;0.60;0.60;;;;;;;;;;5096716;28;20310;-62
2023/04/05 14:54:12;;;;;;;0.60;0.60;;;;;;;;;;5097030;28;20206;-62